Time;durP1;ratioP1;P1;durP2;ratioP2;P2;SDS_P1;SDS_P2;PMS_P1;PMS_P2;Temp;Humidity;BMP_temperature;BMP_pressure;BME280_temperature;BME280_humidity;BME280_pressure;Samples;Min_cycle;Max_cycle;Signal;HPM_P1;HPM_P2
2022/02/13 00:00:29;;;;;;;1.70;1.50;;;2.40;98.20;;;;;;4965144;28;21004;-76
2022/02/13 00:02:57;;;;;;;1.60;1.40;;;2.40;98.20;;;;;;4969863;28;20517;-75
2022/02/13 00:05:24;;;;;;;1.60;1.40;;;2.30;98.20;;;;;;4962273;28;20477;-74
2022/02/13 00:07:51;;;;;;;1.63;1.50;;;2.30;98.20;;;;;;4977981;28;20555;-75
2022/02/13 00:10:18;;;;;;;1.70;1.50;;;2.20;98.20;;;;;;4961382;28;20482;-75
2022/02/13 00:12:44;;;;;;;1.60;1.50;;;2.20;98.20;;;;;;4967783;28;20965;-73
2022/02/13 00:15:11;;;;;;;1.63;1.50;;;2.20;98.20;;;;;;4958923;28;20469;-74
2022/02/13 00:17:38;;;;;;;1.60;1.50;;;2.20;98.20;;;;;;4954907;28;20472;-75
2022/02/13 00:20:08;;;;;;;1.77;1.67;;;2.20;98.20;;;;;;4964596;28;20499;-73
2022/02/13 00:22:35;;;;;;;1.80;1.70;;;2.20;98.20;;;;;;4964083;28;20484;-74
2022/02/13 00:25:02;;;;;;;1.80;1.70;;;2.20;98.20;;;;;;4957529;28;20477;-74
2022/02/13 00:27:28;;;;;;;1.83;1.73;;;2.10;98.20;;;;;;4986538;28;20869;-74
2022/02/13 00:29:55;;;;;;;1.73;1.63;;;2.20;98.20;;;;;;4964759;28;20493;-74
2022/02/13 00:32:23;;;;;;;1.90;1.80;;;2.20;98.20;;;;;;4966713;28;20481;-74
2022/02/13 00:34:50;;;;;;;2.60;2.40;;;2.20;98.20;;;;;;4962425;28;20469;-74
2022/02/13 00:37:19;;;;;;;1.67;1.57;;;2.30;98.20;;;;;;4966738;28;20492;-74
2022/02/13 00:39:45;;;;;;;1.70;1.50;;;2.40;98.20;;;;;;4963955;28;20498;-77
2022/02/13 00:42:12;;;;;;;1.70;1.60;;;2.40;98.20;;;;;;4965215;28;20891;-76
2022/02/13 00:44:39;;;;;;;1.67;1.53;;;2.50;98.20;;;;;;4968970;28;20480;-77
2022/02/13 00:47:07;;;;;;;1.73;1.63;;;2.60;98.20;;;;;;4966507;28;20495;-77
2022/02/13 00:49:33;;;;;;;1.80;1.70;;;2.60;98.20;;;;;;4960676;28;20463;-77
2022/02/13 00:52:00;;;;;;;1.63;1.50;;;2.70;98.20;;;;;;4958307;28;21008;-77
2022/02/13 00:54:28;;;;;;;1.80;1.70;;;2.70;98.20;;;;;;4963545;28;20474;-77
2022/02/13 00:56:55;;;;;;;1.67;1.50;;;2.70;98.20;;;;;;4963140;28;20485;-77
2022/02/13 00:59:24;;;;;;;1.60;1.50;;;2.70;98.20;;;;;;4982826;28;21020;-77
2022/02/13 01:01:51;;;;;;;1.60;1.47;;;2.70;98.20;;;;;;4970196;28;20856;-77
2022/02/13 01:04:17;;;;;;;1.90;1.80;;;2.60;98.20;;;;;;4965473;28;20843;-76
2022/02/13 01:06:44;;;;;;;1.63;1.50;;;2.60;98.20;;;;;;4959372;28;20487;-77
2022/02/13 01:09:11;;;;;;;1.67;1.50;;;2.50;98.20;;;;;;4967759;28;20474;-78
2022/02/13 01:11:39;;;;;;;1.63;1.50;;;2.50;98.20;;;;;;4950690;28;20855;-77
2022/02/13 01:14:06;;;;;;;1.63;1.50;;;2.50;98.20;;;;;;4960490;28;20494;-77
2022/02/13 01:16:33;;;;;;;1.60;1.50;;;2.50;98.20;;;;;;4954891;28;20559;-76
2022/02/13 01:19:00;;;;;;;1.70;1.60;;;2.50;98.20;;;;;;4971488;28;20486;-77
2022/02/13 01:21:29;;;;;;;1.60;1.40;;;2.60;98.20;;;;;;4949754;28;20491;-77
2022/02/13 01:23:56;;;;;;;1.67;1.50;;;2.60;98.20;;;;;;4985300;28;20469;-76
2022/02/13 01:26:23;;;;;;;1.70;1.60;;;2.60;98.20;;;;;;4955548;28;20863;-78
2022/02/13 01:28:52;;;;;;;1.80;1.70;;;2.60;98.20;;;;;;5028876;23;20495;-72
2022/02/13 01:31:19;;;;;;;1.70;1.60;;;2.70;98.20;;;;;;5002445;28;20527;-72
2022/02/13 01:33:46;;;;;;;1.70;1.60;;;2.70;98.20;;;;;;5002361;28;20455;-71
2022/02/13 01:36:13;;;;;;;1.70;1.57;;;2.70;98.20;;;;;;4996775;28;20491;-70
2022/02/13 01:38:39;;;;;;;1.80;1.70;;;2.60;98.20;;;;;;4998162;28;20479;-73
2022/02/13 01:41:07;;;;;;;1.67;1.50;;;2.60;98.20;;;;;;4999692;28;20483;-73
2022/02/13 01:43:34;;;;;;;1.60;1.40;;;2.50;98.20;;;;;;5016502;28;20886;-73
2022/02/13 01:46:03;;;;;;;1.70;1.60;;;2.40;98.20;;;;;;4999381;28;20478;-73
2022/02/13 01:48:30;;;;;;;1.70;1.50;;;2.40;98.20;;;;;;5024285;28;20687;-73
2022/02/13 01:50:58;;;;;;;1.67;1.50;;;2.30;98.20;;;;;;4999228;28;20492;-74
2022/02/13 01:53:25;;;;;;;2.40;2.20;;;2.30;98.20;;;;;;5007716;28;20464;-72
2022/02/13 01:55:52;;;;;;;2.53;2.33;;;2.20;98.20;;;;;;4998170;28;20468;-72
2022/02/13 01:58:18;;;;;;;1.70;1.60;;;2.20;98.20;;;;;;5020285;28;20494;-72
2022/02/13 02:00:45;;;;;;;2.67;2.47;;;2.10;98.20;;;;;;5003189;28;20485;-72
2022/02/13 02:03:13;;;;;;;1.67;1.50;;;2.10;98.20;;;;;;4989222;28;20509;-73
2022/02/13 02:05:43;;;;;;;1.63;1.50;;;2.10;98.20;;;;;;5000004;28;20467;-73
2022/02/13 02:08:10;;;;;;;1.70;1.60;;;2.00;98.20;;;;;;5007968;28;20581;-74
2022/02/13 02:10:38;;;;;;;1.63;1.50;;;2.00;98.20;;;;;;5009358;28;20468;-73
2022/02/13 02:13:05;;;;;;;1.83;1.73;;;2.00;98.20;;;;;;4999520;28;20492;-73
2022/02/13 02:15:32;;;;;;;1.70;1.50;;;1.90;98.20;;;;;;5004430;28;20457;-73
2022/02/13 02:17:59;;;;;;;1.80;1.70;;;1.90;98.20;;;;;;4995912;28;20491;-73
2022/02/13 02:20:32;;;;;;;1.90;1.80;;;1.90;98.20;;;;;;5009439;28;20488;-72
2022/02/13 02:23:00;;;;;;;1.80;1.70;;;1.90;98.20;;;;;;4998371;28;20488;-73
2022/02/13 02:25:27;;;;;;;1.80;1.70;;;1.90;98.20;;;;;;5009905;28;20468;-72
2022/02/13 02:27:53;;;;;;;1.70;1.60;;;1.80;98.20;;;;;;4983497;28;20500;-71
2022/02/13 02:30:20;;;;;;;1.70;1.60;;;1.80;98.20;;;;;;5003005;28;20967;-71
2022/02/13 02:32:47;;;;;;;1.70;1.60;;;1.80;98.20;;;;;;4998449;28;20519;-72
2022/02/13 02:35:14;;;;;;;1.70;1.60;;;1.80;98.20;;;;;;5004866;28;20988;-73
2022/02/13 02:37:41;;;;;;;1.70;1.60;;;1.80;98.20;;;;;;4998491;28;20488;-73
2022/02/13 02:40:10;;;;;;;1.63;1.50;;;1.70;98.20;;;;;;5008112;28;20491;-73
2022/02/13 02:42:37;;;;;;;1.70;1.60;;;1.70;98.20;;;;;;5006492;28;20482;-72
2022/02/13 02:45:05;;;;;;;1.67;1.50;;;1.70;98.20;;;;;;5010931;28;20461;-71
2022/02/13 02:47:31;;;;;;;1.63;1.50;;;1.70;98.20;;;;;;5012857;28;20502;-71
2022/02/13 02:49:58;;;;;;;1.70;1.60;;;1.70;98.20;;;;;;5012008;28;20491;-72
2022/02/13 02:52:25;;;;;;;1.70;1.60;;;1.70;98.20;;;;;;4998217;28;20536;-73
2022/02/13 02:54:52;;;;;;;1.70;1.50;;;1.60;98.20;;;;;;5003120;28;20459;-72
2022/02/13 02:57:20;;;;;;;1.70;1.60;;;1.60;98.20;;;;;;4992990;28;21036;-72
2022/02/13 02:59:47;;;;;;;1.73;1.63;;;1.60;98.20;;;;;;5005614;28;20492;-72
2022/02/13 03:02:13;;;;;;;1.70;1.60;;;1.60;98.20;;;;;;5007196;28;20502;-72
2022/02/13 03:04:40;;;;;;;1.67;1.57;;;1.60;98.20;;;;;;5013433;28;20468;-73
2022/02/13 03:07:07;;;;;;;1.77;1.67;;;1.60;98.20;;;;;;4994990;28;20492;-73
2022/02/13 03:09:34;;;;;;;1.70;1.60;;;1.50;98.20;;;;;;5006496;28;20870;-71
2022/02/13 03:12:00;;;;;;;2.00;1.90;;;1.50;98.20;;;;;;5008887;28;20483;-73
2022/02/13 03:14:29;;;;;;;1.67;1.50;;;1.50;98.20;;;;;;5013492;28;20834;-73
2022/02/13 03:16:55;;;;;;;1.70;1.60;;;1.50;98.20;;;;;;4998125;28;20488;-72
2022/02/13 03:19:22;;;;;;;1.60;1.50;;;1.50;98.20;;;;;;5008091;28;20507;-73
2022/02/13 03:21:49;;;;;;;1.80;1.70;;;1.50;98.20;;;;;;4996760;28;20911;-73
2022/02/13 03:24:16;;;;;;;1.67;1.50;;;1.50;98.20;;;;;;5004128;28;20460;-73
2022/02/13 03:26:42;;;;;;;1.70;1.53;;;1.50;98.20;;;;;;4996075;28;20499;-72
2022/02/13 03:29:10;;;;;;;1.70;1.60;;;1.50;98.20;;;;;;4994532;28;20491;-73
2022/02/13 03:31:38;;;;;;;1.80;1.70;;;1.60;98.20;;;;;;4995370;28;20484;-72
2022/02/13 03:34:04;;;;;;;1.73;1.63;;;1.60;98.20;;;;;;5007936;28;20587;-73
2022/02/13 03:36:31;;;;;;;1.90;1.80;;;1.70;98.20;;;;;;4997451;28;20503;-72
2022/02/13 03:38:58;;;;;;;1.70;1.60;;;1.70;98.20;;;;;;5008120;28;20491;-72
2022/02/13 03:41:25;;;;;;;1.70;1.57;;;1.80;98.20;;;;;;5000617;28;20491;-73
2022/02/13 03:43:52;;;;;;;2.63;2.43;;;1.80;98.20;;;;;;5018942;28;20464;-73
2022/02/13 03:46:18;;;;;;;1.67;1.50;;;1.80;98.20;;;;;;5008149;28;20460;-71
2022/02/13 03:48:46;;;;;;;1.80;1.70;;;1.80;98.20;;;;;;5009189;28;20499;-72
2022/02/13 03:51:13;;;;;;;1.70;1.60;;;1.90;98.20;;;;;;5006837;28;20555;-73
2022/02/13 03:53:40;;;;;;;1.67;1.50;;;1.90;98.20;;;;;;5008672;28;21495;-73
2022/02/13 03:56:07;;;;;;;1.90;1.80;;;1.90;98.20;;;;;;5008262;28;20543;-72
2022/02/13 03:58:34;;;;;;;1.67;1.50;;;1.90;98.20;;;;;;4997171;28;20511;-72
2022/02/13 04:01:00;;;;;;;1.63;1.50;;;1.90;98.20;;;;;;5006287;28;20484;-72
2022/02/13 04:03:27;;;;;;;1.77;1.67;;;1.90;98.20;;;;;;5006543;28;20468;-71
2022/02/13 04:05:55;;;;;;;1.80;1.70;;;1.90;98.20;;;;;;5007403;28;20467;-73
2022/02/13 04:08:22;;;;;;;1.70;1.50;;;1.90;98.20;;;;;;5004933;28;20853;-73
2022/02/13 04:10:49;;;;;;;1.87;1.77;;;1.90;98.20;;;;;;5006694;28;20472;-72
2022/02/13 04:13:16;;;;;;;1.83;1.73;;;1.90;98.20;;;;;;5002798;28;20460;-71
2022/02/13 04:15:43;;;;;;;1.63;1.50;;;1.90;98.20;;;;;;5006400;28;20648;-73
2022/02/13 04:18:14;;;;;;;1.70;1.50;;;1.90;98.20;;;;;;5007144;28;21079;-71
2022/02/13 04:20:41;;;;;;;1.80;1.70;;;1.90;98.20;;;;;;5007797;28;21255;-71
2022/02/13 04:23:10;;;;;;;1.83;1.73;;;1.80;98.20;;;;;;5005991;28;20510;-71
2022/02/13 04:25:37;;;;;;;1.80;1.70;;;1.80;98.20;;;;;;5000201;28;20549;-73
2022/02/13 04:28:05;;;;;;;1.87;1.77;;;1.90;98.20;;;;;;5006481;28;20846;-72
2022/02/13 04:30:32;;;;;;;1.70;1.57;;;1.80;98.20;;;;;;5002651;28;20460;-73
2022/02/13 04:32:59;;;;;;;1.70;1.60;;;1.90;98.20;;;;;;5008666;28;20468;-73
2022/02/13 04:35:27;;;;;;;1.70;1.50;;;1.90;98.20;;;;;;5007954;28;20495;-73
2022/02/13 04:37:55;;;;;;;1.70;1.60;;;1.90;98.20;;;;;;5007615;28;20552;-72
2022/02/13 04:40:24;;;;;;;2.00;1.90;;;1.90;98.20;;;;;;5008054;28;20499;-72
2022/02/13 04:42:51;;;;;;;1.73;1.63;;;1.90;98.20;;;;;;5006753;28;20496;-73
2022/02/13 04:45:17;;;;;;;1.70;1.60;;;1.90;98.20;;;;;;5008371;28;20468;-71
2022/02/13 04:47:44;;;;;;;1.63;1.50;;;1.80;98.20;;;;;;5008503;28;20471;-71
2022/02/13 04:50:11;;;;;;;1.70;1.60;;;1.80;98.20;;;;;;5007493;28;20464;-73
2022/02/13 04:52:38;;;;;;;1.60;1.50;;;1.70;98.20;;;;;;5008005;28;20487;-73
2022/02/13 04:55:05;;;;;;;1.70;1.50;;;1.70;98.20;;;;;;5007267;28;20467;-71
2022/02/13 04:57:34;;;;;;;1.70;1.60;;;1.60;98.20;;;;;;5001251;28;20832;-72
2022/02/13 05:00:00;;;;;;;1.63;1.50;;;1.50;98.20;;;;;;5000319;28;20491;-71
2022/02/13 05:02:27;;;;;;;1.80;1.70;;;1.50;98.20;;;;;;5001512;28;20798;-72
2022/02/13 05:04:54;;;;;;;2.23;2.03;;;1.40;98.20;;;;;;5005803;28;20460;-72
2022/02/13 05:07:20;;;;;;;1.90;1.80;;;1.40;98.20;;;;;;5007638;28;20464;-73
2022/02/13 05:09:47;;;;;;;1.83;1.73;;;1.40;98.20;;;;;;5007101;28;20484;-72
2022/02/13 05:12:14;;;;;;;1.70;1.60;;;1.40;98.20;;;;;;5007137;28;20460;-72
2022/02/13 05:14:42;;;;;;;1.70;1.60;;;1.40;98.20;;;;;;5006890;28;21130;-71
2022/02/13 05:17:09;;;;;;;1.80;1.70;;;1.40;98.20;;;;;;5007734;28;20975;-71
2022/02/13 05:19:36;;;;;;;1.70;1.60;;;1.30;98.20;;;;;;5007560;28;21113;-73
2022/02/13 05:22:03;;;;;;;1.70;1.60;;;1.30;98.20;;;;;;5010269;28;20487;-71
2022/02/13 05:24:34;;;;;;;1.90;1.80;;;1.30;98.20;;;;;;5010768;28;20472;-73
2022/02/13 05:27:01;;;;;;;1.77;1.67;;;1.20;98.20;;;;;;5011137;28;20471;-70
2022/02/13 05:29:27;;;;;;;1.90;1.80;;;1.20;98.20;;;;;;4996850;28;20870;-73
2022/02/13 05:31:55;;;;;;;1.87;1.77;;;1.20;98.20;;;;;;5006970;28;20947;-72
2022/02/13 05:34:22;;;;;;;1.70;1.60;;;1.20;98.20;;;;;;5010890;28;20460;-72
2022/02/13 05:36:50;;;;;;;1.80;1.70;;;1.10;98.20;;;;;;5011557;28;20687;-72
2022/02/13 05:39:16;;;;;;;1.87;1.77;;;1.20;98.20;;;;;;5011128;28;20488;-73
2022/02/13 05:41:43;;;;;;;1.70;1.60;;;1.30;98.20;;;;;;5009477;28;20488;-72
2022/02/13 05:44:10;;;;;;;2.30;2.10;;;1.40;98.20;;;;;;5011421;28;20471;-73
2022/02/13 05:46:37;;;;;;;1.63;1.50;;;1.50;98.20;;;;;;5011792;28;20476;-73
2022/02/13 05:49:05;;;;;;;1.70;1.60;;;1.50;98.20;;;;;;5010964;28;21224;-72
2022/02/13 05:51:32;;;;;;;1.70;1.50;;;1.60;98.20;;;;;;5009322;28;20463;-72
2022/02/13 05:53:59;;;;;;;1.70;1.60;;;1.60;98.20;;;;;;5010231;28;20479;-72
2022/02/13 05:56:27;;;;;;;1.83;1.73;;;1.60;98.20;;;;;;5009712;28;20471;-72
2022/02/13 05:58:53;;;;;;;1.70;1.50;;;1.70;98.20;;;;;;5009929;28;20503;-72
2022/02/13 06:01:20;;;;;;;1.70;1.60;;;1.70;98.20;;;;;;5006697;28;21113;-72
2022/02/13 06:03:48;;;;;;;1.73;1.63;;;1.70;98.20;;;;;;5010168;28;20475;-72
2022/02/13 06:06:16;;;;;;;1.73;1.63;;;1.70;98.20;;;;;;5010017;28;21181;-70
2022/02/13 06:08:43;;;;;;;1.67;1.57;;;1.70;98.20;;;;;;5010397;28;20484;-73
2022/02/13 06:11:12;;;;;;;2.17;1.97;;;1.70;98.20;;;;;;5009655;28;20468;-71
2022/02/13 06:13:38;;;;;;;1.63;1.50;;;1.70;98.20;;;;;;5011052;28;20467;-73
2022/02/13 06:16:06;;;;;;;1.70;1.60;;;1.70;98.20;;;;;;5000136;28;20472;-73
2022/02/13 06:18:33;;;;;;;1.80;1.70;;;1.60;98.20;;;;;;5004576;28;20637;-72
2022/02/13 06:21:00;;;;;;;1.70;1.60;;;1.60;98.20;;;;;;5009171;28;20488;-71
2022/02/13 06:23:28;;;;;;;1.63;1.50;;;1.60;98.20;;;;;;5010031;28;20469;-71
2022/02/13 06:25:55;;;;;;;1.70;1.60;;;1.60;98.20;;;;;;5010086;28;20475;-71
2022/02/13 06:28:22;;;;;;;1.83;1.73;;;1.60;98.20;;;;;;5009622;28;20536;-71
2022/02/13 06:30:49;;;;;;;1.90;1.80;;;1.50;98.20;;;;;;5004215;28;20461;-71
2022/02/13 06:33:16;;;;;;;1.87;1.77;;;1.50;98.20;;;;;;5009233;28;20471;-71
2022/02/13 06:35:42;;;;;;;1.67;1.50;;;1.50;98.20;;;;;;5005580;28;20472;-72
2022/02/13 06:38:11;;;;;;;1.83;1.73;;;1.50;98.20;;;;;;5005873;28;20484;-72
2022/02/13 06:40:40;;;;;;;1.60;1.50;;;1.50;98.20;;;;;;5004741;28;20519;-72
2022/02/13 06:43:07;;;;;;;1.63;1.50;;;1.50;98.20;;;;;;5009827;28;20468;-72
2022/02/13 06:45:34;;;;;;;1.70;1.60;;;1.60;98.20;;;;;;5009529;28;20473;-72
2022/02/13 06:48:01;;;;;;;1.70;1.60;;;1.50;98.20;;;;;;5009593;28;20566;-72
2022/02/13 06:50:28;;;;;;;1.60;1.50;;;1.60;98.20;;;;;;5008775;28;20864;-71
2022/02/13 06:52:54;;;;;;;1.67;1.50;;;1.60;98.20;;;;;;5009711;28;20472;-72
2022/02/13 06:55:21;;;;;;;1.67;1.57;;;1.50;98.20;;;;;;5008924;28;20460;-72
2022/02/13 06:57:51;;;;;;;1.70;1.60;;;1.50;98.20;;;;;;5001650;28;20464;-72
2022/02/13 07:00:18;;;;;;;1.80;1.70;;;1.50;98.20;;;;;;5006195;28;20468;-73
2022/02/13 07:02:46;;;;;;;1.83;1.73;;;1.50;98.20;;;;;;5006274;28;20483;-71
2022/02/13 07:05:13;;;;;;;1.63;1.50;;;1.60;98.20;;;;;;5003483;28;20468;-72
2022/02/13 07:07:40;;;;;;;1.70;1.60;;;1.60;98.20;;;;;;5009721;28;21002;-74
2022/02/13 07:10:09;;;;;;;1.70;1.50;;;1.60;98.20;;;;;;5006407;28;20488;-74
2022/02/13 07:12:37;;;;;;;1.67;1.50;;;1.70;98.20;;;;;;5002897;28;20463;-74
2022/02/13 07:15:06;;;;;;;1.67;1.53;;;1.70;98.20;;;;;;5008080;28;20479;-75
2022/02/13 07:17:33;;;;;;;1.63;1.50;;;1.80;98.20;;;;;;5008608;28;20472;-74
2022/02/13 07:20:00;;;;;;;1.80;1.70;;;1.80;98.20;;;;;;5007235;28;20488;-74
2022/02/13 07:22:27;;;;;;;1.70;1.60;;;1.80;98.20;;;;;;5007241;28;21126;-73
2022/02/13 07:24:54;;;;;;;1.70;1.60;;;1.80;98.20;;;;;;4996290;28;20461;-75
2022/02/13 07:27:21;;;;;;;1.67;1.53;;;1.80;98.20;;;;;;5009290;28;21122;-74
2022/02/13 07:29:48;;;;;;;1.80;1.70;;;1.80;98.20;;;;;;5009274;28;20491;-76
2022/02/13 07:32:16;;;;;;;1.60;1.40;;;1.80;98.20;;;;;;5014410;23;21221;-73
2022/02/13 07:34:43;;;;;;;1.70;1.60;;;1.80;98.20;;;;;;4986710;28;20468;-72
2022/02/13 07:37:10;;;;;;;1.60;1.50;;;1.90;98.20;;;;;;4970507;28;20478;-73
2022/02/13 07:39:38;;;;;;;1.63;1.50;;;1.90;98.20;;;;;;4987203;28;21012;-73
2022/02/13 07:42:05;;;;;;;1.70;1.60;;;1.90;98.20;;;;;;4983201;28;20499;-73
2022/02/13 07:44:32;;;;;;;1.90;1.80;;;2.00;98.20;;;;;;4976558;28;20839;-72
2022/02/13 07:46:59;;;;;;;2.57;2.37;;;2.00;98.20;;;;;;4969252;28;20474;-73
2022/02/13 07:49:27;;;;;;;1.67;1.40;;;2.00;98.20;;;;;;4969777;28;20971;-72
2022/02/13 07:51:54;;;;;;;1.70;1.60;;;2.10;98.20;;;;;;4979762;28;20481;-71
2022/02/13 07:54:20;;;;;;;1.70;1.60;;;2.20;98.20;;;;;;4970890;28;20469;-73
2022/02/13 07:56:47;;;;;;;1.80;1.70;;;2.20;98.20;;;;;;4974271;28;20980;-72
2022/02/13 07:59:14;;;;;;;1.80;1.70;;;2.30;98.20;;;;;;4987148;28;20484;-73
2022/02/13 08:01:42;;;;;;;1.70;1.60;;;2.40;98.20;;;;;;4976671;28;20494;-72
2022/02/13 08:04:08;;;;;;;1.70;1.50;;;2.50;98.20;;;;;;4992531;28;20600;-73
2022/02/13 08:06:37;;;;;;;1.67;1.50;;;2.60;98.20;;;;;;4975141;28;20481;-73
2022/02/13 08:09:03;;;;;;;1.67;1.50;;;2.70;98.20;;;;;;4985755;28;20943;-73
2022/02/13 08:11:30;;;;;;;1.60;1.40;;;2.90;98.20;;;;;;4976178;28;20477;-73
2022/02/13 08:13:58;;;;;;;1.70;1.60;;;3.00;98.20;;;;;;4980670;28;20465;-73
2022/02/13 08:16:25;;;;;;;1.70;1.57;;;3.20;98.20;;;;;;4971770;28;20948;-73
2022/02/13 08:18:52;;;;;;;1.70;1.60;;;3.30;98.20;;;;;;4988479;28;20487;-72
2022/02/13 08:21:19;;;;;;;1.70;1.50;;;3.40;98.20;;;;;;4967521;28;21131;-73
2022/02/13 08:23:47;;;;;;;1.70;1.60;;;3.50;97.50;;;;;;4984278;28;20492;-73
2022/02/13 08:26:16;;;;;;;1.67;1.50;;;3.60;97.20;;;;;;4969568;28;20531;-73
2022/02/13 08:28:43;;;;;;;1.87;1.77;;;3.70;96.80;;;;;;4979090;28;20461;-72
2022/02/13 08:31:10;;;;;;;1.70;1.50;;;3.80;96.00;;;;;;4971359;28;20483;-74
2022/02/13 08:33:37;;;;;;;1.70;1.50;;;3.90;95.50;;;;;;4990411;28;20833;-72
2022/02/13 08:36:04;;;;;;;1.70;1.50;;;3.90;95.40;;;;;;4968268;28;20462;-73
2022/02/13 08:38:31;;;;;;;1.60;1.40;;;4.00;94.50;;;;;;4986041;28;20469;-73
2022/02/13 08:41:00;;;;;;;4.63;4.30;;;4.00;94.30;;;;;;4967839;28;20911;-73
2022/02/13 08:43:27;;;;;;;1.70;1.50;;;4.10;94.10;;;;;;4984543;28;20524;-73
2022/02/13 08:45:55;;;;;;;1.63;1.40;;;4.10;93.90;;;;;;4965794;28;20469;-74
2022/02/13 08:48:22;;;;;;;1.70;1.50;;;4.20;93.80;;;;;;4991966;28;20867;-74
2022/02/13 08:50:50;;;;;;;1.67;1.47;;;4.20;93.50;;;;;;4966995;28;20486;-73
2022/02/13 08:53:16;;;;;;;1.70;1.50;;;4.30;93.90;;;;;;4989981;28;20853;-73
2022/02/13 08:55:43;;;;;;;1.70;1.50;;;4.40;93.90;;;;;;4978733;28;20473;-73
2022/02/13 08:58:12;;;;;;;1.70;1.50;;;4.50;93.60;;;;;;4983291;28;20484;-74
2022/02/13 09:00:39;;;;;;;1.70;1.53;;;4.70;93.20;;;;;;4983098;28;20472;-73
2022/02/13 09:03:05;;;;;;;1.67;1.50;;;4.80;93.10;;;;;;4985812;28;20485;-74
2022/02/13 09:05:32;;;;;;;3.10;2.90;;;4.90;92.60;;;;;;4973098;28;20473;-73
2022/02/13 09:08:01;;;;;;;1.60;1.40;;;5.10;92.00;;;;;;4983786;28;20481;-74
2022/02/13 09:10:28;;;;;;;1.70;1.43;;;5.10;90.90;;;;;;4982180;28;20508;-73
2022/02/13 09:12:55;;;;;;;1.70;1.50;;;5.20;90.20;;;;;;4985560;28;20488;-74
2022/02/13 09:15:24;;;;;;;1.70;1.40;;;5.20;90.50;;;;;;4985799;28;20472;-71
2022/02/13 09:17:54;;;;;;;1.70;1.50;;;5.30;90.20;;;;;;4999770;28;21046;-73
2022/02/13 09:20:44;;;;;;;1.60;1.30;;;5.30;90.20;;;;;;4987554;28;20470;-72
2022/02/13 09:23:18;;;;;;;1.60;1.30;;;5.40;89.70;;;;;;5008356;28;20488;-72
2022/02/13 09:25:47;;;;;;;1.70;1.40;;;5.50;89.50;;;;;;4991867;28;20469;-72
2022/02/13 09:28:19;;;;;;;1.60;1.30;;;5.60;89.20;;;;;;4975446;28;20827;-73
2022/02/13 09:30:49;;;;;;;1.70;1.40;;;5.60;88.70;;;;;;4984406;28;20460;-74
2022/02/13 09:33:17;;;;;;;1.67;1.47;;;5.60;89.10;;;;;;4974314;28;20472;-73
2022/02/13 09:35:44;;;;;;;1.70;1.60;;;5.70;89.10;;;;;;4980764;28;20871;-73
2022/02/13 09:38:15;;;;;;;1.60;1.30;;;5.80;89.00;;;;;;4974531;28;20948;-71
2022/02/13 09:40:44;;;;;;;1.63;1.40;;;5.80;88.50;;;;;;4982210;28;20894;-72
2022/02/13 09:43:11;;;;;;;1.70;1.50;;;5.90;88.50;;;;;;4979601;28;20477;-73
2022/02/13 09:45:42;;;;;;;1.60;1.30;;;6.00;87.50;;;;;;4984095;28;20480;-73
2022/02/13 09:48:13;;;;;;;1.60;1.30;;;6.00;87.50;;;;;;4970263;28;20481;-72
2022/02/13 09:50:40;;;;;;;1.70;1.57;;;6.00;87.50;;;;;;4983079;28;20858;-73
2022/02/13 09:53:07;;;;;;;1.60;1.30;;;6.10;87.70;;;;;;4993516;28;20481;-72
2022/02/13 09:55:35;;;;;;;1.60;1.23;;;6.20;87.30;;;;;;4972885;28;20473;-73
2022/02/13 09:58:03;;;;;;;1.60;1.40;;;6.30;87.60;;;;;;4974720;28;20866;-73
2022/02/13 10:00:55;;;;;;;1.60;1.40;;;6.40;87.30;;;;;;4977372;28;21140;-72
2022/02/13 10:03:25;;;;;;;1.60;1.30;;;6.50;87.20;;;;;;4960687;28;20489;-72
2022/02/13 10:05:53;;;;;;;1.60;1.30;;;6.60;87.10;;;;;;4962315;28;20472;-72
2022/02/13 10:08:32;;;;;;;1.60;1.20;;;6.70;86.50;;;;;;4984404;28;20568;-71
2022/02/13 10:11:10;;;;;;;1.87;1.67;;;6.80;86.70;;;;;;4963670;28;20497;-71
2022/02/13 10:13:47;;;;;;;1.60;1.27;;;6.90;87.30;;;;;;4979999;28;20469;-71
2022/02/13 10:16:15;;;;;;;1.60;1.30;;;7.00;86.50;;;;;;4965726;28;21037;-71
2022/02/13 10:18:49;;;;;;;1.67;1.50;;;7.10;85.70;;;;;;4983027;28;20473;-71
2022/02/13 10:21:34;;;;;;;1.60;1.40;;;7.30;86.10;;;;;;4965159;28;20772;-71
2022/02/13 10:24:26;;;;;;;1.60;1.30;;;7.50;86.10;;;;;;4987880;28;20955;-71
2022/02/13 10:27:11;;;;;;;1.60;1.30;;;7.70;85.50;;;;;;4979483;28;20490;-71
2022/02/13 10:29:40;;;;;;;1.60;1.20;;;8.00;85.80;;;;;;4985310;28;20497;-72
2022/02/13 10:32:17;;;;;;;1.60;1.20;;;8.20;84.60;;;;;;4984419;28;20484;-73
2022/02/13 10:35:03;;;;;;;1.60;1.37;;;8.30;83.80;;;;;;4988887;28;20499;-73
2022/02/13 10:37:45;;;;;;;1.60;1.20;;;8.50;84.60;;;;;;4992650;28;20497;-72
2022/02/13 10:40:18;;;;;;;1.60;1.20;;;8.50;82.70;;;;;;4988862;28;20457;-74
2022/02/13 10:42:46;;;;;;;1.83;1.63;;;8.50;83.40;;;;;;4993392;28;21024;-72
2022/02/13 10:45:25;;;;;;;1.60;1.20;;;8.60;83.20;;;;;;4984519;28;20500;-73
2022/02/13 10:48:04;;;;;;;2.30;2.10;;;8.60;82.60;;;;;;4975571;28;20491;-73
2022/02/13 10:50:35;;;;;;;1.60;1.20;;;8.70;82.80;;;;;;4991910;28;20464;-78
2022/02/13 10:53:04;;;;;;;1.70;1.50;;;8.70;82.70;;;;;;4983621;28;20491;-72
2022/02/13 10:55:33;;;;;;;1.60;1.20;;;8.80;83.50;;;;;;4980669;28;20509;-73
2022/02/13 10:58:01;;;;;;;1.60;1.30;;;9.00;83.10;;;;;;4989040;28;20572;-77
2022/02/13 11:00:30;;;;;;;1.60;1.20;;;9.00;82.80;;;;;;4978221;28;20553;-72
2022/02/13 11:03:06;;;;;;;1.60;1.20;;;9.10;81.90;;;;;;4985909;28;20472;-74
2022/02/13 11:05:35;;;;;;;1.60;1.20;;;9.00;81.90;;;;;;4975593;28;20460;-74
2022/02/13 11:08:06;;;;;;;1.60;1.20;;;9.10;81.60;;;;;;4981902;28;20582;-73
2022/02/13 11:10:37;;;;;;;1.53;1.20;;;9.20;82.40;;;;;;4977352;28;20462;-72
2022/02/13 11:13:04;;;;;;;1.60;1.27;;;9.30;81.40;;;;;;4992219;28;20870;-73
2022/02/13 11:15:33;;;;;;;1.57;1.10;;;9.40;82.10;;;;;;4977393;28;20678;-73
2022/02/13 11:18:04;;;;;;;1.60;1.40;;;9.60;81.70;;;;;;4976703;28;20465;-74
2022/02/13 11:20:32;;;;;;;1.57;1.10;;;9.70;80.90;;;;;;4974839;28;20462;-73
2022/02/13 11:23:23;;;;;;;1.60;1.20;;;9.70;80.90;;;;;;4977352;28;20497;-69
2022/02/13 11:25:55;;;;;;;1.60;1.30;;;9.70;80.70;;;;;;4972249;28;20471;-70
2022/02/13 11:28:26;;;;;;;3.93;2.03;;;9.80;80.60;;;;;;4981449;28;20953;-70
2022/02/13 11:30:55;;;;;;;1.60;1.20;;;9.80;80.00;;;;;;4970486;28;20909;-70
2022/02/13 11:33:42;;;;;;;1.57;1.10;;;10.00;80.10;;;;;;4974937;28;20467;-69
2022/02/13 11:36:11;;;;;;;2.00;1.77;;;10.10;79.60;;;;;;4970570;28;20548;-70
2022/02/13 11:38:56;;;;;;;1.93;1.73;;;10.10;78.70;;;;;;4976432;28;20465;-70
2022/02/13 11:42:09;;;;;;;1.60;1.10;;;10.20;80.50;;;;;;4975467;28;20899;-71
2022/02/13 11:44:54;;;;;;;1.60;1.30;;;10.30;80.20;;;;;;4975821;28;20501;-71
2022/02/13 11:47:40;;;;;;;1.60;1.20;;;10.50;79.90;;;;;;4973121;28;20548;-71
2022/02/13 11:50:24;;;;;;;1.60;1.20;;;10.60;80.90;;;;;;4974644;28;20531;-70
2022/02/13 11:52:56;;;;;;;1.60;1.20;;;10.70;80.00;;;;;;4971723;28;20485;-70
2022/02/13 11:55:26;;;;;;;1.60;1.20;;;10.60;79.60;;;;;;4977338;28;20469;-71
2022/02/13 11:57:56;;;;;;;1.60;1.20;;;10.60;79.50;;;;;;4973538;28;20473;-71
2022/02/13 12:00:37;;;;;;;1.60;1.13;;;10.50;78.70;;;;;;4975730;28;20492;-71
2022/02/13 12:03:21;;;;;;;1.70;1.40;;;10.40;79.50;;;;;;4976993;28;20923;-71
2022/02/13 12:06:22;;;;;;;1.60;1.10;;;10.40;80.50;;;;;;4974599;28;20508;-70
2022/02/13 12:08:50;;;;;;;1.60;1.10;;;10.40;80.50;;;;;;4975671;28;20965;-70
2022/02/13 12:11:18;;;;;;;1.60;1.20;;;10.50;80.20;;;;;;4977739;28;20489;-71
2022/02/13 12:13:46;;;;;;;1.60;1.20;;;10.50;79.50;;;;;;4973823;28;20830;-71
2022/02/13 12:16:14;;;;;;;1.60;1.20;;;10.50;79.90;;;;;;4971817;28;20966;-71
2022/02/13 12:18:40;;;;;;;1.60;1.20;;;10.50;80.40;;;;;;4978162;28;20472;-72
2022/02/13 12:21:09;;;;;;;1.60;1.10;;;10.50;80.30;;;;;;4972244;28;20895;-72
2022/02/13 12:23:37;;;;;;;1.60;1.10;;;10.50;81.40;;;;;;4970798;28;20493;-71
2022/02/13 12:26:05;;;;;;;1.60;1.40;;;10.50;79.90;;;;;;4975197;28;20474;-72
2022/02/13 12:28:35;;;;;;;1.60;1.20;;;10.40;80.00;;;;;;4974379;28;20472;-73
2022/02/13 12:31:03;;;;;;;1.60;1.10;;;10.30;79.80;;;;;;4967223;28;20508;-72
2022/02/13 12:33:34;;;;;;;1.57;1.03;;;10.40;81.20;;;;;;4975516;28;20461;-70
2022/02/13 12:36:01;;;;;;;1.60;1.40;;;10.40;80.30;;;;;;4974316;28;20574;-72
2022/02/13 12:38:30;;;;;;;1.60;1.10;;;10.50;80.70;;;;;;4971953;28;20504;-69
2022/02/13 12:40:57;;;;;;;1.60;1.10;;;10.70;81.10;;;;;;4976490;28;20492;-70
2022/02/13 12:43:25;;;;;;;1.60;1.10;;;10.90;81.40;;;;;;4974723;28;20490;-70
2022/02/13 12:45:56;;;;;;;1.60;1.10;;;11.10;79.80;;;;;;4974522;28;20469;-71
2022/02/13 12:48:28;;;;;;;1.60;1.20;;;11.30;80.40;;;;;;4978839;28;20461;-69
2022/02/13 12:50:57;;;;;;;1.60;1.10;;;11.40;79.30;;;;;;4968314;28;20492;-71
2022/02/13 12:53:26;;;;;;;1.53;1.10;;;11.40;78.20;;;;;;4973262;28;20880;-71
2022/02/13 12:55:58;;;;;;;1.57;1.00;;;11.40;78.30;;;;;;4976216;28;20465;-71
2022/02/13 12:58:26;;;;;;;1.57;1.00;;;11.50;78.90;;;;;;4974194;28;20531;-71
2022/02/13 13:00:55;;;;;;;1.70;1.40;;;11.60;79.00;;;;;;4973982;28;20485;-71
2022/02/13 13:03:26;;;;;;;1.57;1.07;;;11.70;78.50;;;;;;4975110;28;20485;-71